Time;durP1;ratioP1;P1;durP2;ratioP2;P2;SDS_P1;SDS_P2;PMS_P1;PMS_P2;Temp;Humidity;BMP_temperature;BMP_pressure;BME280_temperature;BME280_humidity;BME280_pressure;Samples;Min_cycle;Max_cycle;Signal;HPM_P1;HPM_P2
2020/12/09 00:00:07;;;;;;;55.87;29.30;;;;;;;-0.83;85.85;94414.97;5095347;28;20176;-77
2020/12/09 00:02:33;;;;;;;56.73;27.77;;;;;;;-0.82;85.90;94416.59;5114148;28;20224;-76
2020/12/09 00:04:58;;;;;;;57.00;28.50;;;;;;;-0.80;86.04;94424.94;5110882;28;20265;-77
2020/12/09 00:07:24;;;;;;;51.33;27.90;;;;;;;-0.84;85.79;94424.34;5113122;28;20264;-76
2020/12/09 00:09:49;;;;;;;54.93;29.23;;;;;;;-0.78;86.11;94428.22;5113706;28;20175;-77
2020/12/09 00:12:15;;;;;;;53.23;29.23;;;;;;;-0.85;85.77;94427.81;5078249;28;20191;-76
2020/12/09 00:14:41;;;;;;;53.70;28.07;;;;;;;-0.79;85.68;94424.03;5078112;28;20189;-76
2020/12/09 00:17:06;;;;;;;57.97;29.13;;;;;;;-0.80;85.82;94428.28;5091948;28;20207;-76
2020/12/09 00:19:31;;;;;;;55.50;30.93;;;;;;;-0.81;85.43;94428.41;5095023;28;20619;-77
2020/12/09 00:21:56;;;;;;;53.63;29.83;;;;;;;-0.86;85.84;94423.63;5095567;28;20521;-77
2020/12/09 00:24:22;;;;;;;55.67;29.47;;;;;;;-0.79;85.76;94421.47;5093745;28;20223;-76
2020/12/09 00:26:47;;;;;;;60.87;29.33;;;;;;;-0.82;85.51;94424.22;5071839;28;20179;-77
2020/12/09 00:29:12;;;;;;;57.90;29.43;;;;;;;-0.82;85.93;94426.78;5113050;28;20201;-77
2020/12/09 00:31:38;;;;;;;57.13;28.23;;;;;;;-0.88;85.97;94425.50;5094947;28;20657;-77
2020/12/09 00:34:04;;;;;;;53.13;28.87;;;;;;;-0.82;86.29;94427.59;5112128;28;20256;-77
2020/12/09 00:36:30;;;;;;;54.83;28.73;;;;;;;-0.76;85.75;94424.63;5099151;28;20651;-77
2020/12/09 00:38:55;;;;;;;57.83;29.87;;;;;;;-0.83;86.07;94430.25;5112998;28;20208;-76
2020/12/09 00:41:23;;;;;;;54.63;29.30;;;;;;;-0.79;86.18;94429.13;5111408;28;20183;-77
2020/12/09 00:43:49;;;;;;;54.23;29.20;;;;;;;-0.86;85.96;94421.91;5078019;28;20210;-76
2020/12/09 00:46:15;;;;;;;56.23;29.87;;;;;;;-0.82;86.16;94429.31;5090948;28;20187;-77
2020/12/09 00:48:41;;;;;;;52.10;29.07;;;;;;;-0.83;86.29;94417.50;5076895;28;20168;-76
2020/12/09 00:51:11;;;;;;;55.40;28.90;;;;;;;-0.91;86.67;94429.03;5094806;28;20194;-77
2020/12/09 00:53:36;;;;;;;54.67;29.30;;;;;;;-0.91;86.62;94416.28;5094455;28;20256;-76
2020/12/09 00:56:05;;;;;;;54.13;28.87;;;;;;;-0.86;86.55;94429.53;5094798;28;20536;-76
2020/12/09 00:58:30;;;;;;;58.30;30.43;;;;;;;-0.89;86.60;94427.19;5105003;28;20222;-77
2020/12/09 01:00:56;;;;;;;56.50;30.10;;;;;;;-0.88;86.49;94428.84;5094667;28;20190;-76
2020/12/09 01:03:21;;;;;;;57.57;30.17;;;;;;;-0.86;86.58;94432.09;5094028;28;20203;-76
2020/12/09 01:05:46;;;;;;;55.57;30.90;;;;;;;-0.79;86.74;94434.22;5111573;28;20523;-76
2020/12/09 01:08:11;;;;;;;54.53;30.90;;;;;;;-0.81;86.65;94433.50;5110395;28;20190;-77
2020/12/09 01:10:37;;;;;;;59.90;30.97;;;;;;;-0.79;86.81;94431.69;5076553;28;20182;-77
2020/12/09 01:13:02;;;;;;;62.70;30.27;;;;;;;-0.81;86.82;94430.94;5111169;28;20286;-77
2020/12/09 01:15:27;;;;;;;53.40;29.17;;;;;;;-0.75;86.70;94433.91;5111437;28;20630;-77
2020/12/09 01:17:53;;;;;;;55.07;28.73;;;;;;;-0.74;86.78;94429.59;5092329;28;20203;-77
2020/12/09 01:20:18;;;;;;;63.50;31.47;;;;;;;-0.78;86.76;94434.13;5110217;28;20195;-76
2020/12/09 01:22:44;;;;;;;56.17;30.30;;;;;;;-0.74;86.46;94424.50;5111345;28;20218;-76
2020/12/09 01:25:09;;;;;;;57.47;30.53;;;;;;;-0.77;86.64;94432.38;5110813;28;20186;-76
2020/12/09 01:27:34;;;;;;;53.43;28.47;;;;;;;-0.77;86.83;94432.38;5094054;28;20278;-77
2020/12/09 01:30:00;;;;;;;56.37;29.83;;;;;;;-0.76;86.82;94427.16;5096468;28;20191;-77
2020/12/09 01:32:25;;;;;;;54.67;30.10;;;;;;;-0.76;86.88;94429.72;5111672;28;20218;-77
2020/12/09 01:34:50;;;;;;;57.47;31.03;;;;;;;-0.74;86.80;94432.97;5111840;28;20260;-77
2020/12/09 01:37:16;;;;;;;57.23;31.03;;;;;;;-0.76;86.66;94437.38;5093984;28;20202;-77
2020/12/09 01:39:41;;;;;;;50.60;28.63;;;;;;;-0.71;86.81;94434.47;5105348;28;20193;-77
2020/12/09 01:42:07;;;;;;;60.83;31.23;;;;;;;-0.74;86.79;94435.53;5093711;28;20700;-76
2020/12/09 01:44:32;;;;;;;56.33;29.57;;;;;;;-0.74;86.86;94443.16;5076955;28;20199;-77
2020/12/09 01:47:02;;;;;;;55.43;30.00;;;;;;;-0.71;86.94;94445.50;5111830;28;20210;-77
2020/12/09 01:49:27;;;;;;;55.87;29.13;;;;;;;-0.75;86.88;94441.53;5111905;28;20175;-76
2020/12/09 01:51:53;;;;;;;52.80;28.93;;;;;;;-0.73;87.03;94442.25;5090611;28;20829;-77
2020/12/09 01:54:18;;;;;;;54.03;28.77;;;;;;;-0.72;87.11;94448.97;5107985;28;20296;-77
2020/12/09 01:56:43;;;;;;;56.17;29.27;;;;;;;-0.63;86.63;94447.50;5110458;28;20631;-77
2020/12/09 01:59:08;;;;;;;58.97;30.33;;;;;;;-0.70;87.19;94446.34;5110581;28;20222;-76
2020/12/09 02:01:34;;;;;;;59.33;31.70;;;;;;;-0.63;86.75;94448.31;5101953;28;20277;-77
2020/12/09 02:03:59;;;;;;;60.27;31.63;;;;;;;-0.64;86.79;94451.00;5093365;28;20206;-76
2020/12/09 02:06:25;;;;;;;54.03;29.73;;;;;;;-0.61;86.93;94451.59;5111616;28;20222;-77
2020/12/09 02:08:50;;;;;;;55.90;30.00;;;;;;;-0.64;86.96;94461.19;5100570;28;20221;-77
2020/12/09 02:11:15;;;;;;;55.97;31.17;;;;;;;-0.60;86.90;94465.16;5109510;28;20175;-77
2020/12/09 02:13:45;;;;;;;63.77;31.13;;;;;;;-0.60;86.65;94467.72;5092630;28;20221;-77
2020/12/09 02:16:13;;;;;;;58.10;30.60;;;;;;;-0.61;86.68;94463.53;5093339;28;20284;-77
2020/12/09 02:18:39;;;;;;;63.53;32.50;;;;;;;-0.54;86.79;94472.38;5109861;28;20678;-77
2020/12/09 02:21:04;;;;;;;59.57;30.03;;;;;;;-0.52;86.55;94482.50;5110576;28;20182;-76
2020/12/09 02:23:29;;;;;;;59.03;31.80;;;;;;;-0.55;86.53;94487.78;5107883;28;20763;-77
2020/12/09 02:25:55;;;;;;;58.40;30.63;;;;;;;-0.51;86.52;94496.88;5093401;28;20183;-77
2020/12/09 02:28:20;;;;;;;58.17;31.47;;;;;;;-0.56;86.74;94504.81;5095491;28;20210;-77
2020/12/09 02:30:45;;;;;;;61.83;33.57;;;;;;;-0.57;86.73;94505.75;5097383;28;20269;-76
2020/12/09 02:33:10;;;;;;;62.00;32.33;;;;;;;-0.55;87.07;94508.19;5090621;28;20211;-76
2020/12/09 02:35:36;;;;;;;60.50;32.50;;;;;;;-0.50;86.79;94506.97;5097305;28;20228;-77
2020/12/09 02:38:02;;;;;;;60.27;31.40;;;;;;;-0.58;86.88;94504.94;5097099;28;20241;-76
2020/12/09 02:40:27;;;;;;;59.67;31.97;;;;;;;-0.57;86.99;94514.22;5115013;28;20176;-76
2020/12/09 02:42:53;;;;;;;61.93;31.53;;;;;;;-0.53;86.88;94522.47;5114387;28;20674;-77
2020/12/09 02:45:18;;;;;;;61.07;33.63;;;;;;;-0.52;86.71;94520.75;5111199;28;20553;-77
2020/12/09 02:47:43;;;;;;;59.63;31.33;;;;;;;-0.52;86.93;94526.66;5115452;28;20182;-76
2020/12/09 02:50:09;;;;;;;62.13;33.40;;;;;;;-0.52;86.65;94519.00;5113772;28;20602;-76
2020/12/09 02:52:34;;;;;;;54.70;31.50;;;;;;;-0.53;86.67;94519.09;5097107;28;20180;-77
2020/12/09 02:54:59;;;;;;;61.40;32.60;;;;;;;-0.46;86.47;94523.66;5105531;28;20190;-76
2020/12/09 02:57:25;;;;;;;56.37;31.63;;;;;;;-0.50;86.86;94529.91;5096041;28;20925;-77
2020/12/09 02:59:50;;;;;;;63.20;31.27;;;;;;;-0.47;86.68;94528.88;5096593;28;20544;-76
2020/12/09 03:02:16;;;;;;;59.90;30.60;;;;;;;-0.48;86.74;94532.34;5115277;28;20535;-76
2020/12/09 03:04:42;;;;;;;57.80;31.33;;;;;;;-0.54;86.73;94533.56;5094855;28;20642;-76
2020/12/09 03:07:07;;;;;;;61.67;32.53;;;;;;;-0.53;87.24;94537.78;5087423;28;20187;-76
2020/12/09 03:09:32;;;;;;;63.83;33.53;;;;;;;-0.56;86.53;94543.06;5114876;28;20190;-77
2020/12/09 03:11:58;;;;;;;58.23;32.53;;;;;;;-0.54;86.74;94541.22;5096451;28;20189;-77
2020/12/09 03:14:23;;;;;;;65.43;33.63;;;;;;;-0.53;86.82;94545.44;5096670;28;20248;-76
2020/12/09 03:16:49;;;;;;;68.90;33.30;;;;;;;-0.52;86.86;94541.97;5089914;28;20209;-77
2020/12/09 03:19:14;;;;;;;67.30;32.73;;;;;;;-0.54;87.06;94538.69;5095960;28;20571;-76
2020/12/09 03:21:43;;;;;;;64.30;34.43;;;;;;;-0.48;86.80;94538.25;5096050;28;20227;-76
2020/12/09 03:24:10;;;;;;;64.20;34.17;;;;;;;-0.51;86.82;94538.47;5097093;28;20206;-76
2020/12/09 03:26:36;;;;;;;65.67;33.37;;;;;;;-0.55;87.00;94537.06;5093441;28;20622;-77
2020/12/09 03:29:01;;;;;;;59.43;31.20;;;;;;;-0.51;86.90;94538.47;5095933;28;20222;-77
2020/12/09 03:31:27;;;;;;;62.70;32.73;;;;;;;-0.52;86.85;94547.06;5096394;28;20200;-77
2020/12/09 03:33:52;;;;;;;60.63;33.00;;;;;;;-0.54;87.34;94558.25;5096154;28;20512;-76
2020/12/09 03:36:17;;;;;;;65.00;33.77;;;;;;;-0.50;87.00;94560.50;5096427;28;20210;-76
2020/12/09 03:38:43;;;;;;;62.27;33.13;;;;;;;-0.51;87.08;94569.09;5093232;28;20211;-77
2020/12/09 03:41:08;;;;;;;61.70;33.80;;;;;;;-0.53;87.18;94581.13;5099421;28;20651;-77
2020/12/09 03:43:33;;;;;;;62.77;34.37;;;;;;;-0.54;87.19;94569.28;5095918;28;20203;-77
2020/12/09 03:45:58;;;;;;;65.13;34.40;;;;;;;-0.55;87.12;94579.59;5114401;28;20180;-76
2020/12/09 03:48:24;;;;;;;62.27;33.97;;;;;;;-0.57;87.28;94579.69;5079653;28;20229;-77
2020/12/09 03:50:49;;;;;;;62.77;33.73;;;;;;;-0.58;87.42;94576.34;5095658;28;20172;-76
2020/12/09 03:53:15;;;;;;;66.10;35.13;;;;;;;-0.61;87.37;94573.19;5113936;28;20263;-77
2020/12/09 03:55:40;;;;;;;65.00;35.17;;;;;;;-0.57;87.91;94574.59;5077673;28;20324;-77
2020/12/09 03:58:05;;;;;;;68.27;35.37;;;;;;;-0.60;87.33;94574.81;5116684;27;20343;-76
2020/12/09 04:00:31;;;;;;;65.33;33.90;;;;;;;-0.58;87.34;94576.34;5112766;28;20203;-77
2020/12/09 04:02:56;;;;;;;65.07;35.23;;;;;;;-0.63;87.59;94564.81;5095843;28;20203;-76
2020/12/09 04:05:23;;;;;;;62.40;34.00;;;;;;;-0.63;87.36;94565.63;5091767;28;20255;-76
2020/12/09 04:07:48;;;;;;;67.20;35.77;;;;;;;-0.67;87.86;94558.28;5095534;28;20572;-76
2020/12/09 04:10:13;;;;;;;67.33;35.17;;;;;;;-0.66;87.82;94554.81;5112289;28;20183;-77
2020/12/09 04:12:38;;;;;;;65.20;34.73;;;;;;;-0.61;87.54;94561.25;5112679;28;20191;-77
2020/12/09 04:15:04;;;;;;;65.70;34.83;;;;;;;-0.67;87.59;94556.56;5113995;28;20179;-76
2020/12/09 04:17:29;;;;;;;67.70;35.60;;;;;;;-0.69;87.97;94557.59;5076377;28;20823;-76
2020/12/09 04:19:54;;;;;;;68.20;34.53;;;;;;;-0.65;87.76;94564.91;5095244;28;20219;-77
2020/12/09 04:22:20;;;;;;;57.37;30.90;;;;;;;-0.66;87.84;94559.94;5094957;28;20248;-77
2020/12/09 04:24:45;;;;;;;69.60;34.53;;;;;;;-0.70;87.98;94568.72;5112468;28;20591;-76
2020/12/09 04:27:10;;;;;;;68.20;34.30;;;;;;;-0.70;87.85;94563.63;5101004;28;20261;-77
2020/12/09 04:29:36;;;;;;;69.10;35.50;;;;;;;-0.73;87.94;94563.81;5094949;28;20273;-76
2020/12/09 04:32:01;;;;;;;69.43;36.20;;;;;;;-0.75;87.97;94570.75;5094995;28;20182;-76
2020/12/09 04:34:27;;;;;;;70.97;33.97;;;;;;;-0.76;88.10;94569.94;5078402;28;20722;-77
2020/12/09 04:36:53;;;;;;;70.40;36.43;;;;;;;-0.77;88.12;94572.59;5091259;28;20187;-76
2020/12/09 04:39:19;;;;;;;70.47;34.70;;;;;;;-0.80;88.19;94568.50;5091770;28;20224;-76
2020/12/09 04:41:45;;;;;;;73.10;35.90;;;;;;;-0.76;88.41;94569.13;5078179;28;20183;-76
2020/12/09 04:44:11;;;;;;;73.10;35.30;;;;;;;-0.77;88.19;94570.84;5077536;28;20196;-76
2020/12/09 04:46:41;;;;;;;68.40;33.60;;;;;;;-0.76;88.37;94571.66;5078031;28;20180;-76
2020/12/09 04:49:12;;;;;;;63.83;34.37;;;;;;;-0.78;88.42;94570.97;5095657;28;20180;-76
2020/12/09 04:51:55;;;;;;;65.20;33.20;;;;;;;-0.79;88.11;94569.34;5086443;28;20179;-76
2020/12/09 04:54:38;;;;;;;67.30;34.40;;;;;;;-0.82;88.39;94577.97;5112725;28;20203;-76
2020/12/09 04:57:08;;;;;;;65.37;32.73;;;;;;;-0.77;88.25;94580.25;5079310;28;20204;-76
2020/12/09 04:59:38;;;;;;;71.27;35.13;;;;;;;-0.80;88.46;94582.97;5093922;28;20568;-76
2020/12/09 05:02:06;;;;;;;68.87;35.20;;;;;;;-0.79;88.23;94584.63;5077835;28;20183;-76
2020/12/09 05:04:32;;;;;;;68.03;34.23;;;;;;;-0.79;88.42;94585.44;5094880;28;20226;-76
2020/12/09 05:07:05;;;;;;;65.33;33.77;;;;;;;-0.77;88.14;94587.88;5106955;28;20188;-76
2020/12/09 05:09:34;;;;;;;68.13;33.60;;;;;;;-0.74;88.33;94598.69;5076559;28;20183;-76
2020/12/09 05:12:04;;;;;;;63.77;32.27;;;;;;;-0.75;88.35;94602.16;5111219;28;20183;-76
2020/12/09 05:14:31;;;;;;;65.43;33.87;;;;;;;-0.77;88.24;94605.72;5094019;28;20199;-76
2020/12/09 05:16:58;;;;;;;58.97;33.57;;;;;;;-0.72;88.18;94612.13;5094471;28;20230;-76
2020/12/09 05:19:23;;;;;;;63.70;33.00;;;;;;;-0.79;88.35;94605.84;5110032;28;20213;-77
2020/12/09 05:21:49;;;;;;;61.97;33.87;;;;;;;-0.75;88.46;94611.53;5112556;28;20178;-76
2020/12/09 05:24:18;;;;;;;66.33;33.90;;;;;;;-0.77;88.39;94613.38;5112233;28;20278;-77
2020/12/09 05:26:43;;;;;;;71.93;35.20;;;;;;;-0.77;88.41;94609.09;5108813;28;20192;-75
2020/12/09 05:29:12;;;;;;;60.87;33.20;;;;;;;-0.78;88.46;94602.38;5103196;28;20252;-76
2020/12/09 05:31:38;;;;;;;60.73;31.60;;;;;;;-0.69;88.41;94606.03;5073222;28;20639;-75
2020/12/09 05:34:23;;;;;;;61.97;32.67;;;;;;;-0.76;88.36;94605.63;5087967;28;20567;-75
2020/12/09 05:36:49;;;;;;;59.23;31.37;;;;;;;-0.69;88.19;94608.59;5094226;28;20212;-76
2020/12/09 05:39:15;;;;;;;61.87;32.97;;;;;;;-0.72;88.25;94606.22;5108087;28;20643;-76
2020/12/09 05:41:40;;;;;;;64.80;32.43;;;;;;;-0.67;88.42;94616.94;5092675;28;20270;-76
2020/12/09 05:44:06;;;;;;;64.73;35.17;;;;;;;-0.70;88.25;94612.88;5076513;28;20230;-75
2020/12/09 05:46:31;;;;;;;58.90;31.67;;;;;;;-0.72;88.27;94621.53;5111273;28;20183;-76
2020/12/09 05:48:57;;;;;;;60.20;32.10;;;;;;;-0.64;88.06;94624.38;5092886;28;20236;-76
2020/12/09 05:51:23;;;;;;;59.77;32.20;;;;;;;-0.68;88.44;94615.31;5083470;28;20203;-76
2020/12/09 05:53:48;;;;;;;60.63;33.20;;;;;;;-0.67;88.39;94624.59;5093313;28;20200;-76
2020/12/09 05:56:14;;;;;;;61.20;32.33;;;;;;;-0.66;88.33;94626.22;5072129;28;20196;-76
2020/12/09 05:58:41;;;;;;;63.03;33.27;;;;;;;-0.69;88.45;94626.44;5087911;28;20216;-76
2020/12/09 06:01:08;;;;;;;59.20;32.73;;;;;;;-0.69;88.42;94631.53;5090094;28;20183;-76
2020/12/09 06:03:35;;;;;;;59.00;32.07;;;;;;;-0.66;88.35;94634.69;5083326;28;20304;-76
2020/12/09 06:06:10;;;;;;;52.57;30.40;;;;;;;-0.66;88.31;94636.41;5093209;28;20194;-75
2020/12/09 06:08:37;;;;;;;56.97;31.10;;;;;;;-0.69;88.56;94628.97;5110778;28;20536;-76
2020/12/09 06:11:03;;;;;;;61.43;31.60;;;;;;;-0.65;88.22;94628.66;5089192;28;20288;-76
2020/12/09 06:13:32;;;;;;;58.90;30.87;;;;;;;-0.67;88.36;94629.69;5098954;28;20210;-77
2020/12/09 06:16:01;;;;;;;56.27;30.97;;;;;;;-0.71;88.11;94628.25;5091706;28;20198;-76
2020/12/09 06:18:29;;;;;;;55.00;30.00;;;;;;;-0.65;88.38;94626.09;5090287;28;20216;-76
2020/12/09 06:20:54;;;;;;;61.87;31.50;;;;;;;-0.65;88.14;94631.22;5092245;28;20257;-76
2020/12/09 06:23:20;;;;;;;61.77;32.73;;;;;;;-0.70;88.53;94633.25;5106602;28;20215;-77
2020/12/09 06:25:46;;;;;;;68.33;33.47;;;;;;;-0.71;88.37;94641.00;5089515;28;20265;-75
2020/12/09 06:28:13;;;;;;;59.90;32.10;;;;;;;-0.69;88.59;94649.38;5073031;28;20194;-76
2020/12/09 06:30:39;;;;;;;58.33;30.53;;;;;;;-0.71;88.43;94654.56;5105897;28;20229;-76
2020/12/09 06:33:04;;;;;;;61.40;32.37;;;;;;;-0.71;88.45;94651.19;5091218;28;20207;-76
2020/12/09 06:35:29;;;;;;;59.27;34.00;;;;;;;-0.67;88.43;94647.53;5092680;28;20176;-76
2020/12/09 06:38:07;;;;;;;59.17;32.00;;;;;;;-0.65;88.33;94649.06;5092269;28;20239;-77
2020/12/09 06:40:33;;;;;;;62.03;33.07;;;;;;;-0.71;88.46;94646.09;5109664;28;20175;-76
2020/12/09 06:43:13;;;;;;;54.57;32.27;;;;;;;-0.65;88.25;94650.78;5070368;28;20199;-76
2020/12/09 06:45:42;;;;;;;60.70;32.10;;;;;;;-0.60;88.45;94648.75;5065224;28;20210;-77
2020/12/09 06:48:11;;;;;;;57.50;31.53;;;;;;;-0.68;88.42;94651.81;5089331;28;20583;-76
2020/12/09 06:50:37;;;;;;;57.97;30.80;;;;;;;-0.69;88.57;94650.19;5106529;28;20669;-75
2020/12/09 06:53:15;;;;;;;61.33;32.73;;;;;;;-0.71;88.71;94658.84;5092521;28;20203;-76
2020/12/09 06:55:41;;;;;;;60.17;32.97;;;;;;;-0.71;88.69;94658.84;5103814;28;20191;-76
2020/12/09 06:58:26;;;;;;;63.17;33.23;;;;;;;-0.68;88.29;94662.03;5092501;28;20476;-75
2020/12/09 07:01:10;;;;;;;58.17;31.07;;;;;;;-0.64;88.59;94665.16;5091666;28;20194;-76
2020/12/09 07:03:39;;;;;;;70.87;33.37;;;;;;;-0.64;88.56;94665.97;5094433;28;20206;-77
2020/12/09 07:06:20;;;;;;;59.13;32.43;;;;;;;-0.64;88.66;94665.16;5106255;28;20187;-75
2020/12/09 07:08:46;;;;;;;62.07;33.30;;;;;;;-0.67;88.61;94670.47;5109585;28;20643;-76
2020/12/09 07:11:11;;;;;;;63.33;31.97;;;;;;;-0.64;88.53;94671.09;5108430;28;20179;-76
2020/12/09 07:13:37;;;;;;;58.80;32.00;;;;;;;-0.66;88.42;94682.31;5095110;28;20212;-75
2020/12/09 07:16:02;;;;;;;61.90;31.20;;;;;;;-0.65;88.42;94683.94;5093640;28;20232;-76
2020/12/09 07:18:27;;;;;;;62.43;32.87;;;;;;;-0.66;88.39;94692.50;5095015;28;20583;-76
2020/12/09 07:20:53;;;;;;;58.73;32.40;;;;;;;-0.66;88.34;94695.06;5095216;28;20179;-77
2020/12/09 07:23:18;;;;;;;55.97;31.23;;;;;;;-0.62;88.64;94693.94;5113781;28;20214;-75
2020/12/09 07:25:43;;;;;;;54.43;31.23;;;;;;;-0.64;88.59;94690.66;5110308;28;20259;-76
2020/12/09 07:28:09;;;;;;;58.00;32.03;;;;;;;-0.61;88.44;94693.03;5091296;28;20184;-76
2020/12/09 07:30:35;;;;;;;55.07;31.33;;;;;;;-0.61;88.28;94698.94;5095430;28;20224;-76
2020/12/09 07:33:00;;;;;;;59.40;31.43;;;;;;;-0.64;88.37;94709.34;5095729;28;20273;-76
2020/12/09 07:35:26;;;;;;;60.00;31.67;;;;;;;-0.60;88.01;94703.13;5092612;28;20190;-76
2020/12/09 07:37:55;;;;;;;56.57;30.20;;;;;;;-0.64;88.56;94701.69;5107131;28;20213;-76
2020/12/09 07:40:29;;;;;;;59.13;30.13;;;;;;;-0.63;88.36;94712.69;5091869;28;20586;-76
2020/12/09 07:42:58;;;;;;;58.50;30.03;;;;;;;-0.56;88.21;94708.84;5095495;28;20202;-77
2020/12/09 07:45:24;;;;;;;55.13;30.83;;;;;;;-0.57;88.41;94707.22;5107142;28;20277;-76
2020/12/09 07:47:49;;;;;;;61.57;31.07;;;;;;;-0.59;88.44;94711.59;5091158;28;20262;-76
2020/12/09 07:50:14;;;;;;;57.23;31.77;;;;;;;-0.61;88.35;94718.53;5113452;28;20194;-76
2020/12/09 07:52:41;;;;;;;60.23;32.43;;;;;;;-0.63;88.48;94717.78;5113296;28;20260;-77
2020/12/09 07:55:11;;;;;;;57.57;30.80;;;;;;;-0.59;88.56;94720.06;5094930;28;20190;-77
2020/12/09 07:57:37;;;;;;;56.67;30.87;;;;;;;-0.65;88.57;94719.63;5093062;28;20204;-77
2020/12/09 08:00:14;;;;;;;56.63;30.80;;;;;;;-0.63;88.40;94717.78;5094021;28;20274;-77
2020/12/09 08:02:44;;;;;;;62.37;31.83;;;;;;;-0.57;88.34;94725.88;5092704;28;20229;-76
2020/12/09 08:05:11;;;;;;;57.23;31.30;;;;;;;-0.55;88.26;94720.66;5088880;28;20643;-77
2020/12/09 08:07:52;;;;;;;56.93;30.63;;;;;;;-0.53;88.44;94723.97;5077864;28;20176;-76
2020/12/09 08:10:21;;;;;;;52.73;29.00;;;;;;;-0.51;88.33;94717.00;5108155;28;20248;-77
2020/12/09 08:12:46;;;;;;;54.67;29.80;;;;;;;-0.50;88.06;94711.00;5073660;28;20273;-77
2020/12/09 08:15:11;;;;;;;57.27;29.83;;;;;;;-0.49;88.07;94715.16;5094899;28;20186;-76
2020/12/09 08:17:37;;;;;;;53.27;30.17;;;;;;;-0.43;88.13;94713.97;5091535;28;20196;-75
2020/12/09 08:20:07;;;;;;;55.03;30.50;;;;;;;-0.47;87.93;94715.88;5105189;28;20530;-73
2020/12/09 08:22:57;;;;;;;56.73;30.50;;;;;;;-0.43;87.90;94719.88;5094245;28;20185;-76
2020/12/09 08:25:24;;;;;;;53.40;28.60;;;;;;;-0.38;87.97;94720.38;5081999;28;20199;-76
2020/12/09 08:27:50;;;;;;;56.60;30.17;;;;;;;-0.36;88.09;94721.06;5111381;28;20517;-78
2020/12/09 08:30:16;;;;;;;51.43;29.37;;;;;;;-0.37;88.03;94728.84;5109796;28;20239;-77
2020/12/09 08:33:10;;;;;;;54.43;27.90;;;;;;;-0.36;87.79;94736.38;5111482;28;20233;-77
2020/12/09 08:35:50;;;;;;;53.57;28.47;;;;;;;-0.36;87.62;94741.50;5112799;28;20526;-77
2020/12/09 08:38:49;;;;;;;49.67;28.63;;;;;;;-0.33;87.91;94740.50;5091155;28;20221;-77
2020/12/09 08:41:17;;;;;;;48.67;27.17;;;;;;;-0.33;87.87;94740.50;5047901;28;20208;-76
2020/12/09 08:43:46;;;;;;;49.80;28.23;;;;;;;-0.36;87.74;94738.94;5044563;28;20227;-75
2020/12/09 08:46:11;;;;;;;54.53;29.10;;;;;;;-0.30;87.41;94750.47;5047692;28;20271;-76
2020/12/09 08:48:38;;;;;;;51.23;27.07;;;;;;;-0.31;87.44;94749.66;5031004;28;20680;-76
2020/12/09 08:51:04;;;;;;;50.37;27.37;;;;;;;-0.31;87.50;94759.88;5016553;28;20198;-75
2020/12/09 08:53:29;;;;;;;45.47;25.40;;;;;;;-0.33;87.13;94758.34;5027326;28;20816;-75
2020/12/09 08:55:55;;;;;;;46.03;27.40;;;;;;;-0.29;87.28;94758.03;5029265;28;20186;-76
2020/12/09 08:58:20;;;;;;;49.50;27.60;;;;;;;-0.31;87.69;94762.41;5034672;28;20688;-76
2020/12/09 09:00:46;;;;;;;49.77;25.93;;;;;;;-0.25;87.18;94758.66;5019214;28;20658;-75
2020/12/09 09:03:16;;;;;;;49.03;27.23;;;;;;;-0.25;86.83;94762.94;5040032;28;20225;-75
2020/12/09 09:05:42;;;;;;;48.90;26.97;;;;;;;-0.18;87.00;94759.03;5016242;28;20182;-76
2020/12/09 09:08:10;;;;;;;49.30;27.43;;;;;;;-0.18;87.07;94764.97;5028243;28;20548;-75
2020/12/09 09:10:36;;;;;;;48.47;27.40;;;;;;;-0.19;87.04;94765.06;5025407;28;20206;-75
2020/12/09 09:13:02;;;;;;;46.00;26.73;;;;;;;-0.17;86.89;94771.72;5043844;28;20213;-75
2020/12/09 09:15:28;;;;;;;50.33;27.60;;;;;;;-0.18;86.92;94769.25;5031744;28;20189;-75
2020/12/09 09:17:53;;;;;;;46.63;25.53;;;;;;;-0.20;86.69;94776.19;5108369;28;20219;-76
2020/12/09 09:20:18;;;;;;;47.97;26.53;;;;;;;-0.15;86.83;94775.00;5091590;28;20646;-75
2020/12/09 09:22:44;;;;;;;50.87;27.50;;;;;;;-0.16;86.80;94772.53;5094725;28;20686;-75
2020/12/09 09:25:09;;;;;;;50.00;26.60;;;;;;;-0.14;86.72;94765.59;5094140;28;20236;-75
2020/12/09 09:27:35;;;;;;;43.60;26.07;;;;;;;-0.06;86.82;94771.81;5096998;28;20514;-76
2020/12/09 09:30:00;;;;;;;44.73;25.57;;;;;;;-0.05;86.93;94776.00;5093297;28;20273;-75
2020/12/09 09:32:25;;;;;;;39.63;23.10;;;;;;;-0.09;86.42;94768.63;5093613;28;20712;-76
2020/12/09 09:34:51;;;;;;;44.53;25.13;;;;;;;-0.06;86.99;94778.66;5073187;28;20704;-77
2020/12/09 09:37:17;;;;;;;44.37;24.47;;;;;;;-0.07;86.55;94767.63;5085860;28;20206;-76
2020/12/09 09:39:43;;;;;;;46.53;26.23;;;;;;;-0.10;86.74;94772.94;5097230;28;20237;-76
2020/12/09 09:42:09;;;;;;;46.40;26.10;;;;;;;-0.14;86.96;94770.69;5092819;28;20187;-77
2020/12/09 09:44:34;;;;;;;47.23;26.47;;;;;;;-0.14;87.00;94768.97;5089138;28;21775;-76
2020/12/09 09:47:00;;;;;;;46.63;25.47;;;;;;;-0.14;87.28;94763.03;5110603;28;20734;-76
2020/12/09 09:49:25;;;;;;;44.63;23.33;;;;;;;-0.13;87.06;94774.88;5109175;28;20191;-75
2020/12/09 09:51:52;;;;;;;48.43;25.80;;;;;;;-0.15;87.23;94775.00;5093196;28;20642;-74
2020/12/09 09:54:19;;;;;;;46.83;25.73;;;;;;;-0.12;86.99;94773.97;5093115;28;20210;-75
2020/12/09 09:56:44;;;;;;;45.00;24.97;;;;;;;-0.05;86.77;94775.19;5080410;28;20211;-76
2020/12/09 09:59:09;;;;;;;45.50;25.30;;;;;;;-0.06;86.61;94776.13;5111380;28;20238;-76
2020/12/09 10:01:35;;;;;;;48.50;23.87;;;;;;;-0.05;87.06;94781.09;5089479;28;20577;-76
2020/12/09 10:04:00;;;;;;;44.63;25.47;;;;;;;-0.04;87.06;94774.28;5088580;28;20288;-75
2020/12/09 10:06:25;;;;;;;37.03;22.30;;;;;;;0.01;86.90;94779.06;5087815;28;20195;-76
2020/12/09 10:08:51;;;;;;;43.33;23.63;;;;;;;0.00;86.75;94780.81;5097585;28;20180;-76
2020/12/09 10:11:16;;;;;;;39.10;22.70;;;;;;;-0.04;86.78;94769.97;5107603;28;20190;-76
2020/12/09 10:13:42;;;;;;;44.27;24.03;;;;;;;-0.07;87.18;94766.81;5072814;28;20685;-76
2020/12/09 10:16:07;;;;;;;44.17;23.97;;;;;;;-0.02;86.72;94764.75;5089231;28;20195;-76
2020/12/09 10:18:32;;;;;;;46.43;23.77;;;;;;;-0.02;86.87;94760.47;5090056;28;20589;-76
2020/12/09 10:20:58;;;;;;;41.77;23.93;;;;;;;-0.04;86.95;94764.06;5111015;28;20203;-75
2020/12/09 10:23:23;;;;;;;41.83;24.43;;;;;;;0.01;87.15;94767.13;5105356;28;20237;-75
2020/12/09 10:25:49;;;;;;;43.97;24.10;;;;;;;-0.13;87.47;94759.56;5089327;28;20191;-76
2020/12/09 10:28:14;;;;;;;43.47;23.73;;;;;;;-0.03;87.45;94763.13;5073042;28;20178;-75
2020/12/09 10:30:45;;;;;;;51.07;25.93;;;;;;;0.01;87.36;94758.66;5090356;28;20265;-74
2020/12/09 10:33:11;;;;;;;46.57;25.63;;;;;;;0.03;87.46;94754.25;5085848;28;20207;-76
2020/12/09 10:35:37;;;;;;;49.33;27.23;;;;;;;0.01;87.94;94751.81;5092159;28;20176;-76
2020/12/09 10:38:02;;;;;;;46.67;25.03;;;;;;;0.07;87.12;94755.66;5111195;28;20204;-76
2020/12/09 10:40:27;;;;;;;45.37;24.93;;;;;;;0.09;87.44;94754.66;5094595;28;20252;-75
2020/12/09 10:42:53;;;;;;;40.93;23.90;;;;;;;0.05;87.09;94758.34;5092604;28;20204;-76
2020/12/09 10:45:18;;;;;;;40.33;24.20;;;;;;;0.05;86.95;94760.88;5088834;28;20195;-76
2020/12/09 10:47:44;;;;;;;39.10;21.97;;;;;;;0.10;86.79;94758.84;5092874;28;20179;-76
2020/12/09 10:50:09;;;;;;;39.37;21.73;;;;;;;0.15;86.75;94761.06;5095867;28;20203;-75
2020/12/09 10:52:34;;;;;;;41.90;22.47;;;;;;;0.12;86.82;94763.84;5096608;28;20183;-76
2020/12/09 10:55:00;;;;;;;39.03;21.43;;;;;;;0.11;87.04;94763.03;5093237;28;20180;-75
2020/12/09 10:57:26;;;;;;;45.53;23.83;;;;;;;0.11;86.96;94763.03;5096560;28;20203;-76
2020/12/09 10:59:52;;;;;;;43.17;23.13;;;;;;;0.14;87.01;94756.91;5095085;28;20195;-75
2020/12/09 11:02:17;;;;;;;44.57;24.37;;;;;;;0.18;87.09;94761.72;5097176;28;20179;-75
2020/12/09 11:04:42;;;;;;;41.00;21.90;;;;;;;0.16;86.73;94755.06;5075376;28;20204;-76
2020/12/09 11:07:09;;;;;;;39.07;21.27;;;;;;;0.18;86.94;94755.78;5092712;28;20636;-76
2020/12/09 11:09:35;;;;;;;42.87;23.30;;;;;;;0.14;86.79;94750.06;5114364;28;20184;-76
2020/12/09 11:12:00;;;;;;;34.80;18.57;;;;;;;0.17;86.37;94754.94;5114920;28;20242;-77
2020/12/09 11:14:26;;;;;;;37.87;20.87;;;;;;;0.18;86.75;94758.34;5079333;28;20203;-76